Snowflake, Arizona
Current Conditions -  °F | °C
As of 10:55 AM on Thursday 30 Oct 2014 (Local Time) from KSOW Reporting Station
Clear Clear  
Wind Chill: 63°   Ceiling: Unl
Heat Index: 63°   Visibility: 10mi
Dew Point: 27°   Wind: 3mph
Humidity: 26%   Direction: 40°NE
Pressure: 30.36"   Gusts: NA
Location:  34.51°N, 110.08°W
Report Text: KSOW 301755Z AUTO 04003KT 10SM CLR 17/M03 A3036 RMK AO2
Loading
Personal Weather Stations






























Interactive Weather Map
Tropical Storm Tracking
New forecast layout! Learn more

10-Day Weather Forecast

Advertisements
Track Severe Weather on mobile